ENFL/FRO METAR and TAF weather

Enter ICAO airport designator
Station Type Date Time Source
ENFL METAR 2022/05/23 13:50 UTC NOAA

ENFL 231350Z 18021KT 9999 -SHRA FEW008 SCT013 BKN020 11/10 Q1001


Station Type Date Time Source
ENFL Decoded METAR 2022/05/23 13:50 UTC NOAA

Floro, Norway (ENFL) 61-35N 005-02E 9M
May 23, 2022 - 09:50 AM EDT / 2022.05.23 1350 UTC
Wind: from the S (180 degrees) at 24 MPH (21 KT):0
Visibility: greater than 7 mile(s):0
Sky conditions: mostly cloudy
Weather: light rain showers
Temperature: 51 F (11 C)
Dew Point: 50 F (10 C)
Relative Humidity: 93%
Pressure (altimeter): 29.56 in. Hg (1001 hPa)
ob: ENFL 231350Z 18021KT 9999 -SHRA FEW008 SCT013 BKN020 11/10 Q1001
cycle: 14

Station Type Date Time Source
ENFL TAF 2010/02/05 07:50 UTC NOAA

METAR ENFL 050750Z 16019KT 140V200 9999 FEW015 SCT030 BKN055 03/M03 Q1011

Example: see airport list